EJU46KY EGKK-EHAM
Flight info
| Callsign | EJU46KY |
|---|---|
| Flight time | 0h 41m |
| Altitude | 29000 |
| Route | FRANE M604 GASBA M197 REDFA |
| Aircraft | A319/M-SDE3FGHIRWY/LB1 |
Departure
| Time | 2026-05-06 20:42 |
|---|---|
| Airport | London Gatwick Airport (EGKK) |
Arrival
| Time | 2026-05-06 21:24 |
|---|---|
| Airport | Amsterdam Airport Schiphol (EHAM) |
| Time | Latitude | Longitude | Altitude | Speed | Heading |
|---|---|---|---|---|---|
| 2026-05-06 20:01 | 51.15321 | -0.18929 | 211 ft | 0 kts | 257° |
| 2026-05-06 20:07 | 51.15327 | -0.18887 | 211 ft | 0 kts | 257° |
| 2026-05-06 20:31 | 51.15328 | -0.18880 | 210 ft | 2 kts | 257° |
| 2026-05-06 20:31 | 51.15333 | -0.18850 | 210 ft | 3 kts | 255° |
| 2026-05-06 20:31 | 51.15339 | -0.18819 | 210 ft | 3 kts | 250° |
| 2026-05-06 20:31 | 51.15347 | -0.18790 | 210 ft | 3 kts | 236° |
| 2026-05-06 20:32 | 51.15359 | -0.18770 | 210 ft | 3 kts | 185° |
| 2026-05-06 20:32 | 51.15374 | -0.18773 | 210 ft | 2 kts | 167° |
| 2026-05-06 20:32 | 51.15378 | -0.18774 | 210 ft | 0 kts | 167° |
| 2026-05-06 20:35 | 51.15373 | -0.18773 | 210 ft | 3 kts | 167° |
| 2026-05-06 20:35 | 51.15333 | -0.18758 | 210 ft | 9 kts | 167° |
| 2026-05-06 20:35 | 51.15256 | -0.18731 | 210 ft | 12 kts | 167° |
| 2026-05-06 20:36 | 51.15167 | -0.18700 | 210 ft | 14 kts | 167° |
| 2026-05-06 20:36 | 51.15119 | -0.18711 | 210 ft | 4 kts | 263° |
| 2026-05-06 20:36 | 51.15114 | -0.18785 | 210 ft | 9 kts | 262° |
| 2026-05-06 20:36 | 51.15098 | -0.18903 | 210 ft | 13 kts | 257° |
| 2026-05-06 20:37 | 51.15073 | -0.19075 | 210 ft | 18 kts | 257° |
| 2026-05-06 20:37 | 51.15042 | -0.19292 | 210 ft | 21 kts | 257° |
| 2026-05-06 20:37 | 51.15010 | -0.19527 | 210 ft | 22 kts | 259° |
| 2026-05-06 20:37 | 51.14976 | -0.19776 | 210 ft | 23 kts | 258° |
| 2026-05-06 20:38 | 51.14942 | -0.20033 | 210 ft | 24 kts | 257° |
| 2026-05-06 20:38 | 51.14917 | -0.20213 | 210 ft | 25 kts | 258° |
| 2026-05-06 20:38 | 51.14878 | -0.20490 | 210 ft | 26 kts | 257° |
| 2026-05-06 20:38 | 51.14826 | -0.20874 | 210 ft | 27 kts | 257° |
| 2026-05-06 20:39 | 51.14783 | -0.21157 | 210 ft | 24 kts | 255° |
| 2026-05-06 20:39 | 51.14752 | -0.21329 | 210 ft | 23 kts | 258° |
| 2026-05-06 20:39 | 51.14726 | -0.21407 | 210 ft | 3 kts | 181° |
| 2026-05-06 20:39 | 51.14690 | -0.21387 | 210 ft | 8 kts | 138° |
| 2026-05-06 20:40 | 51.14633 | -0.21339 | 210 ft | 10 kts | 180° |
| 2026-05-06 20:40 | 51.14575 | -0.21318 | 210 ft | 7 kts | 144° |
| 2026-05-06 20:40 | 51.14527 | -0.21250 | 210 ft | 9 kts | 127° |
| 2026-05-06 20:40 | 51.14511 | -0.21170 | 210 ft | 6 kts | 71° |
| 2026-05-06 20:41 | 51.14520 | -0.21118 | 210 ft | 3 kts | 77° |
| 2026-05-06 20:41 | 51.14521 | -0.21108 | 210 ft | 0 kts | 77° |
| 2026-05-06 20:41 | 51.14521 | -0.21107 | 210 ft | 1 kts | 77° |
| 2026-05-06 20:41 | 51.14537 | -0.21004 | 211 ft | 38 kts | 77° |
| 2026-05-06 20:42 | 51.14659 | -0.20116 | 211 ft | 122 kts | 77° |
| 2026-05-06 20:42 | 51.14894 | -0.18504 | 453 ft | 160 kts | 77° |
| 2026-05-06 20:42 | 51.15133 | -0.16753 | 1242 ft | 164 kts | 78° |
| 2026-05-06 20:42 | 51.15372 | -0.14914 | 1846 ft | 177 kts | 77° |
| 2026-05-06 20:43 | 51.15632 | -0.12945 | 2369 ft | 189 kts | 77° |
| 2026-05-06 20:43 | 51.15913 | -0.10829 | 2893 ft | 204 kts | 77° |
| 2026-05-06 20:43 | 51.16240 | -0.08540 | 3451 ft | 220 kts | 76° |
| 2026-05-06 20:43 | 51.16601 | -0.06071 | 4081 ft | 237 kts | 76° |
| 2026-05-06 20:44 | 51.16897 | -0.03410 | 4748 ft | 252 kts | 85° |
| 2026-05-06 20:44 | 51.16902 | -0.00554 | 5491 ft | 263 kts | 91° |
| 2026-05-06 20:44 | 51.16801 | 0.02396 | 6378 ft | 269 kts | 92° |
| 2026-05-06 20:44 | 51.16711 | 0.05390 | 7278 ft | 273 kts | 91° |
| 2026-05-06 20:45 | 51.16658 | 0.08437 | 8170 ft | 277 kts | 90° |
| 2026-05-06 20:45 | 51.16617 | 0.11540 | 9051 ft | 282 kts | 91° |
| 2026-05-06 20:45 | 51.16567 | 0.14683 | 9899 ft | 287 kts | 90° |
| 2026-05-06 20:45 | 51.16544 | 0.17893 | 10712 ft | 292 kts | 89° |
| 2026-05-06 20:46 | 51.16548 | 0.21111 | 11490 ft | 297 kts | 89° |
| 2026-05-06 20:46 | 51.16564 | 0.24431 | 12244 ft | 304 kts | 88° |
| 2026-05-06 20:46 | 51.16578 | 0.27839 | 12795 ft | 309 kts | 89° |
| 2026-05-06 20:46 | 51.16586 | 0.31266 | 13010 ft | 310 kts | 89° |
| 2026-05-06 20:47 | 51.16587 | 0.34691 | 13017 ft | 310 kts | 89° |
| 2026-05-06 20:47 | 51.16586 | 0.38121 | 13116 ft | 309 kts | 89° |
| 2026-05-06 20:47 | 51.16587 | 0.41554 | 13571 ft | 312 kts | 89° |
| 2026-05-06 20:47 | 51.16589 | 0.45028 | 14339 ft | 315 kts | 89° |
| 2026-05-06 20:48 | 51.16698 | 0.48536 | 14952 ft | 323 kts | 78° |
| 2026-05-06 20:48 | 51.17541 | 0.51934 | 15263 ft | 338 kts | 55° |
| 2026-05-06 20:48 | 51.19136 | 0.54678 | 15629 ft | 350 kts | 36° |
| 2026-05-06 20:48 | 51.21305 | 0.56544 | 15992 ft | 361 kts | 17° |
| 2026-05-06 20:49 | 51.23778 | 0.57538 | 16342 ft | 373 kts | 10° |
| 2026-05-06 20:49 | 51.26366 | 0.58352 | 16701 ft | 385 kts | 9° |
| 2026-05-06 20:49 | 51.29010 | 0.59186 | 17312 ft | 389 kts | 10° |
| 2026-05-06 20:49 | 51.31664 | 0.60106 | 17919 ft | 392 kts | 11° |
| 2026-05-06 20:50 | 51.34332 | 0.61122 | 18503 ft | 396 kts | 12° |
| 2026-05-06 20:50 | 51.37018 | 0.62181 | 19059 ft | 400 kts | 12° |
| 2026-05-06 20:50 | 51.39697 | 0.63225 | 19595 ft | 403 kts | 12° |
| 2026-05-06 20:50 | 51.42473 | 0.64279 | 20131 ft | 407 kts | 11° |
| 2026-05-06 20:51 | 51.45205 | 0.65304 | 20635 ft | 410 kts | 11° |
| 2026-05-06 20:51 | 51.47996 | 0.66350 | 21130 ft | 414 kts | 11° |
| 2026-05-06 20:51 | 51.50807 | 0.67414 | 21609 ft | 417 kts | 11° |
| 2026-05-06 20:51 | 51.53641 | 0.68497 | 22079 ft | 421 kts | 11° |
| 2026-05-06 20:52 | 51.56499 | 0.69589 | 22526 ft | 424 kts | 11° |
| 2026-05-06 20:52 | 51.59384 | 0.70687 | 22968 ft | 427 kts | 11° |
| 2026-05-06 20:52 | 51.62291 | 0.71791 | 23400 ft | 431 kts | 11° |
| 2026-05-06 20:52 | 51.65218 | 0.72902 | 23818 ft | 434 kts | 11° |
| 2026-05-06 20:53 | 51.68164 | 0.74023 | 24228 ft | 437 kts | 11° |
| 2026-05-06 20:53 | 51.71091 | 0.75141 | 24631 ft | 439 kts | 11° |
| 2026-05-06 20:53 | 51.74077 | 0.76284 | 25035 ft | 442 kts | 11° |
| 2026-05-06 20:53 | 51.77076 | 0.77437 | 25435 ft | 444 kts | 11° |
| 2026-05-06 20:54 | 51.80079 | 0.78688 | 25809 ft | 448 kts | 16° |
| 2026-05-06 20:54 | 51.82941 | 0.80734 | 26175 ft | 454 kts | 29° |
| 2026-05-06 20:54 | 51.85443 | 0.83870 | 26579 ft | 458 kts | 44° |
| 2026-05-06 20:54 | 51.87358 | 0.87968 | 27088 ft | 458 kts | 59° |
| 2026-05-06 20:55 | 51.88581 | 0.92717 | 27587 ft | 458 kts | 74° |
| 2026-05-06 20:55 | 51.89068 | 0.97795 | 28088 ft | 457 kts | 88° |
| 2026-05-06 20:55 | 51.88835 | 1.02841 | 28606 ft | 455 kts | 99° |
| 2026-05-06 20:55 | 51.88571 | 1.07929 | 28994 ft | 456 kts | 88° |
| 2026-05-06 20:56 | 51.89081 | 1.12955 | 29033 ft | 452 kts | 75° |
| 2026-05-06 20:56 | 51.91011 | 1.22628 | 29048 ft | 452 kts | 71° |
| 2026-05-06 20:57 | 51.92906 | 1.32335 | 29038 ft | 452 kts | 74° |
| 2026-05-06 20:57 | 51.94545 | 1.42096 | 29032 ft | 452 kts | 75° |
| 2026-05-06 20:58 | 51.96253 | 1.51905 | 29035 ft | 452 kts | 73° |
| 2026-05-06 20:58 | 51.98008 | 1.61678 | 29040 ft | 452 kts | 73° |
| 2026-05-06 20:59 | 51.99675 | 1.71516 | 29035 ft | 452 kts | 76° |
| 2026-05-06 20:59 | 52.01201 | 1.81419 | 29033 ft | 452 kts | 76° |
| 2026-05-06 21:00 | 52.02735 | 1.91317 | 29032 ft | 452 kts | 76° |
| 2026-05-06 21:00 | 52.04260 | 2.01153 | 29034 ft | 452 kts | 76° |
| 2026-05-06 21:01 | 52.05775 | 2.11070 | 29034 ft | 452 kts | 76° |
| 2026-05-06 21:01 | 52.06523 | 2.16004 | 28888 ft | 446 kts | 76° |
| 2026-05-06 21:01 | 52.07257 | 2.20852 | 28641 ft | 442 kts | 76° |
| 2026-05-06 21:01 | 52.07991 | 2.25693 | 28394 ft | 440 kts | 76° |
| 2026-05-06 21:02 | 52.08721 | 2.30523 | 28146 ft | 439 kts | 76° |
| 2026-05-06 21:02 | 52.09447 | 2.35332 | 27900 ft | 438 kts | 76° |
| 2026-05-06 21:02 | 52.10170 | 2.40137 | 27650 ft | 437 kts | 76° |
| 2026-05-06 21:02 | 52.10881 | 2.44869 | 27414 ft | 435 kts | 76° |
| 2026-05-06 21:03 | 52.11806 | 2.49539 | 27076 ft | 433 kts | 66° |
| 2026-05-06 21:03 | 52.13173 | 2.53872 | 26609 ft | 429 kts | 60° |
| 2026-05-06 21:03 | 52.14693 | 2.58031 | 26085 ft | 426 kts | 58° |
| 2026-05-06 21:03 | 52.16257 | 2.62117 | 25554 ft | 424 kts | 57° |
| 2026-05-06 21:04 | 52.17801 | 2.66186 | 25033 ft | 422 kts | 58° |
| 2026-05-06 21:04 | 52.19305 | 2.70285 | 24482 ft | 420 kts | 59° |
| 2026-05-06 21:04 | 52.20768 | 2.74398 | 23933 ft | 419 kts | 59° |
| 2026-05-06 21:04 | 52.22192 | 2.78445 | 23429 ft | 416 kts | 59° |
| 2026-05-06 21:05 | 52.23637 | 2.82522 | 22916 ft | 414 kts | 59° |
| 2026-05-06 21:05 | 52.25093 | 2.86575 | 22414 ft | 412 kts | 59° |
| 2026-05-06 21:05 | 52.26545 | 2.90595 | 21920 ft | 410 kts | 59° |
| 2026-05-06 21:05 | 52.27984 | 2.94592 | 21440 ft | 408 kts | 59° |
| 2026-05-06 21:06 | 52.29411 | 2.98587 | 20963 ft | 406 kts | 59° |
| 2026-05-06 21:06 | 52.30825 | 3.02565 | 20488 ft | 404 kts | 59° |
| 2026-05-06 21:06 | 52.32228 | 3.06521 | 20043 ft | 402 kts | 59° |
| 2026-05-06 21:06 | 52.33628 | 3.10460 | 19587 ft | 400 kts | 59° |
| 2026-05-06 21:07 | 52.35020 | 3.14383 | 19131 ft | 398 kts | 59° |
| 2026-05-06 21:07 | 52.36402 | 3.18287 | 18683 ft | 396 kts | 59° |
| 2026-05-06 21:07 | 52.37758 | 3.22120 | 18269 ft | 394 kts | 59° |
| 2026-05-06 21:07 | 52.39125 | 3.25988 | 17853 ft | 391 kts | 59° |
| 2026-05-06 21:08 | 52.40482 | 3.29834 | 17437 ft | 389 kts | 59° |
| 2026-05-06 21:08 | 52.41833 | 3.33671 | 17006 ft | 388 kts | 59° |
| 2026-05-06 21:08 | 52.43177 | 3.37490 | 16598 ft | 386 kts | 59° |
| 2026-05-06 21:08 | 52.44478 | 3.41307 | 16199 ft | 381 kts | 63° |
| 2026-05-06 21:09 | 52.45342 | 3.45278 | 15825 ft | 376 kts | 74° |
| 2026-05-06 21:09 | 52.45981 | 3.49505 | 15441 ft | 371 kts | 77° |
| 2026-05-06 21:09 | 52.46514 | 3.53609 | 15055 ft | 366 kts | 78° |
| 2026-05-06 21:09 | 52.47031 | 3.57673 | 14638 ft | 363 kts | 77° |
| 2026-05-06 21:10 | 52.47575 | 3.61699 | 14216 ft | 359 kts | 76° |
| 2026-05-06 21:10 | 52.48145 | 3.65663 | 13801 ft | 356 kts | 76° |
| 2026-05-06 21:10 | 52.48712 | 3.69531 | 13396 ft | 352 kts | 76° |
| 2026-05-06 21:10 | 52.49275 | 3.73418 | 12997 ft | 348 kts | 76° |
| 2026-05-06 21:11 | 52.49819 | 3.77253 | 12624 ft | 343 kts | 76° |
| 2026-05-06 21:11 | 52.50354 | 3.81059 | 12231 ft | 342 kts | 76° |
| 2026-05-06 21:11 | 52.50887 | 3.84862 | 11781 ft | 343 kts | 76° |
| 2026-05-06 21:11 | 52.51422 | 3.88673 | 11369 ft | 340 kts | 76° |
| 2026-05-06 21:12 | 52.51945 | 3.92401 | 11186 ft | 329 kts | 76° |
| 2026-05-06 21:12 | 52.52355 | 3.96019 | 11054 ft | 317 kts | 86° |
| 2026-05-06 21:12 | 52.52052 | 3.99477 | 10929 ft | 306 kts | 107° |
| 2026-05-06 21:12 | 52.51296 | 4.02676 | 10762 ft | 297 kts | 113° |
| 2026-05-06 21:13 | 52.50448 | 4.05757 | 10375 ft | 296 kts | 114° |
| 2026-05-06 21:13 | 52.49603 | 4.08842 | 9992 ft | 295 kts | 113° |
| 2026-05-06 21:13 | 52.48806 | 4.11937 | 9606 ft | 294 kts | 111° |
| 2026-05-06 21:13 | 52.48060 | 4.15033 | 9240 ft | 291 kts | 110° |
| 2026-05-06 21:14 | 52.47329 | 4.18119 | 8873 ft | 288 kts | 110° |
| 2026-05-06 21:14 | 52.46596 | 4.21158 | 8504 ft | 286 kts | 111° |
| 2026-05-06 21:14 | 52.45855 | 4.24168 | 8138 ft | 283 kts | 111° |
| 2026-05-06 21:14 | 52.45108 | 4.27121 | 7791 ft | 279 kts | 114° |
| 2026-05-06 21:15 | 52.43998 | 4.29647 | 7434 ft | 278 kts | 136° |
| 2026-05-06 21:15 | 52.42373 | 4.31304 | 7088 ft | 276 kts | 155° |
| 2026-05-06 21:15 | 52.40580 | 4.32383 | 6705 ft | 274 kts | 160° |
| 2026-05-06 21:15 | 52.38771 | 4.33323 | 6300 ft | 272 kts | 161° |
| 2026-05-06 21:16 | 52.36970 | 4.34212 | 5874 ft | 269 kts | 161° |
| 2026-05-06 21:16 | 52.35182 | 4.35075 | 5376 ft | 265 kts | 161° |
| 2026-05-06 21:16 | 52.33436 | 4.35898 | 4875 ft | 257 kts | 161° |
| 2026-05-06 21:16 | 52.31739 | 4.36675 | 4384 ft | 251 kts | 161° |
| 2026-05-06 21:17 | 52.30086 | 4.37411 | 3891 ft | 249 kts | 161° |
| 2026-05-06 21:17 | 52.28405 | 4.38141 | 3408 ft | 252 kts | 161° |
| 2026-05-06 21:17 | 52.26723 | 4.38852 | 3100 ft | 247 kts | 161° |
| 2026-05-06 21:17 | 52.25071 | 4.39533 | 2823 ft | 242 kts | 161° |
| 2026-05-06 21:18 | 52.23457 | 4.40193 | 2551 ft | 237 kts | 162° |
| 2026-05-06 21:18 | 52.21954 | 4.41136 | 2260 ft | 227 kts | 142° |
| 2026-05-06 21:18 | 52.20912 | 4.42941 | 2028 ft | 216 kts | 118° |
| 2026-05-06 21:18 | 52.20231 | 4.45164 | 2033 ft | 224 kts | 112° |
| 2026-05-06 21:19 | 52.19645 | 4.47466 | 1987 ft | 221 kts | 101° |
| 2026-05-06 21:19 | 52.19709 | 4.49921 | 1983 ft | 220 kts | 65° |
| 2026-05-06 21:19 | 52.20466 | 4.51997 | 2012 ft | 208 kts | 52° |
| 2026-05-06 21:19 | 52.21269 | 4.53940 | 1997 ft | 205 kts | 53° |
| 2026-05-06 21:20 | 52.22040 | 4.55887 | 1967 ft | 203 kts | 53° |
| 2026-05-06 21:20 | 52.22794 | 4.57826 | 1979 ft | 198 kts | 55° |
| 2026-05-06 21:20 | 52.23504 | 4.59682 | 1975 ft | 185 kts | 56° |
| 2026-05-06 21:20 | 52.24166 | 4.61388 | 1797 ft | 171 kts | 55° |
| 2026-05-06 21:21 | 52.24769 | 4.62959 | 1589 ft | 157 kts | 54° |
| 2026-05-06 21:21 | 52.25326 | 4.64402 | 1357 ft | 146 kts | 55° |
| 2026-05-06 21:21 | 52.25847 | 4.65761 | 1160 ft | 137 kts | 55° |
| 2026-05-06 21:21 | 52.26343 | 4.67041 | 934 ft | 131 kts | 54° |
| 2026-05-06 21:22 | 52.26829 | 4.68306 | 803 ft | 133 kts | 55° |
| 2026-05-06 21:22 | 52.27320 | 4.69590 | 653 ft | 133 kts | 55° |
| 2026-05-06 21:22 | 52.27788 | 4.70837 | 436 ft | 132 kts | 56° |
| 2026-05-06 21:22 | 52.28289 | 4.72114 | 230 ft | 131 kts | 54° |
| 2026-05-06 21:23 | 52.28779 | 4.73382 | 92 ft | 132 kts | 56° |
| 2026-05-06 21:23 | 52.29258 | 4.74608 | 19 ft | 115 kts | 60° |
| 2026-05-06 21:23 | 52.29585 | 4.75472 | 19 ft | 66 kts | 58° |
| 2026-05-06 21:23 | 52.29788 | 4.75993 | 19 ft | 52 kts | 56° |
| 2026-05-06 21:24 | 52.29960 | 4.76440 | 19 ft | 35 kts | 56° |
| 2026-05-06 21:24 | 52.30108 | 4.76603 | 19 ft | 25 kts | 29° |
| 2026-05-06 21:24 | 52.30237 | 4.76717 | 19 ft | 10 kts | 27° |
| 2026-05-06 21:24 | 52.30299 | 4.76793 | 19 ft | 13 kts | 58° |
| 2026-05-06 21:25 | 52.30357 | 4.76943 | 19 ft | 18 kts | 57° |
| 2026-05-06 21:25 | 52.30427 | 4.77119 | 19 ft | 19 kts | 57° |
| 2026-05-06 21:25 | 52.30500 | 4.77306 | 19 ft | 20 kts | 60° |
| 2026-05-06 21:25 | 52.30574 | 4.77506 | 19 ft | 21 kts | 57° |
| 2026-05-06 21:26 | 52.30669 | 4.77595 | 19 ft | 16 kts | 1° |
| 2026-05-06 21:26 | 52.30799 | 4.77598 | 19 ft | 22 kts | 1° |
| 2026-05-06 21:26 | 52.30955 | 4.77615 | 19 ft | 23 kts | 4° |
| 2026-05-06 21:26 | 52.31120 | 4.77633 | 19 ft | 24 kts | 4° |
| 2026-05-06 21:27 | 52.31292 | 4.77648 | 19 ft | 25 kts | 3° |
| 2026-05-06 21:27 | 52.31446 | 4.77639 | 19 ft | 18 kts | 338° |
| 2026-05-06 21:27 | 52.31543 | 4.77505 | 19 ft | 19 kts | 314° |
| 2026-05-06 21:27 | 52.31574 | 4.77319 | 19 ft | 18 kts | 272° |
| 2026-05-06 21:28 | 52.31569 | 4.77094 | 19 ft | 23 kts | 268° |
| 2026-05-06 21:28 | 52.31561 | 4.76797 | 19 ft | 30 kts | 266° |
| 2026-05-06 21:28 | 52.31548 | 4.76427 | 19 ft | 33 kts | 265° |
| 2026-05-06 21:28 | 52.31537 | 4.76146 | 19 ft | 21 kts | 265° |
| 2026-05-06 21:29 | 52.31521 | 4.75950 | 19 ft | 12 kts | 225° |
| 2026-05-06 21:29 | 52.31443 | 4.75917 | 19 ft | 12 kts | 179° |
| 2026-05-06 21:29 | 52.31341 | 4.75930 | 19 ft | 18 kts | 176° |
| 2026-05-06 21:29 | 52.31240 | 4.75939 | 19 ft | 3 kts | 200° |
| 2026-05-06 21:30 | 52.31237 | 4.75913 | 19 ft | 5 kts | 266° |
| 2026-05-06 21:30 | 52.31234 | 4.75822 | 19 ft | 9 kts | 266° |
| 2026-05-06 21:30 | 52.31234 | 4.75805 | 19 ft | 0 kts | 267° |